sensor_id;sensor_type;location;lat;lon;timestamp;pressure;altitude;pressure_sealevel;temperature
79495;BMP180;68951;53.130;18.104;2023-04-25T00:00:45;99810.40;;;
79495;BMP180;68951;53.130;18.104;2023-04-25T00:03:20;99817.20;;;
79495;BMP180;68951;53.130;18.104;2023-04-25T00:05:47;99813.00;;;
79495;BMP180;68951;53.130;18.104;2023-04-25T00:08:15;99811.00;;;
79495;BMP180;68951;53.130;18.104;2023-04-25T00:10:41;99809.60;;;
79495;BMP180;68951;53.130;18.104;2023-04-25T00:13:08;99805.60;;;
79495;BMP180;68951;53.130;18.104;2023-04-25T00:15:37;99808.60;;;
79495;BMP180;68951;53.130;18.104;2023-04-25T00:18:05;99808.00;;;
79495;BMP180;68951;53.130;18.104;2023-04-25T00:20:32;99809.20;;;
79495;BMP180;68951;53.130;18.104;2023-04-25T00:22:59;99809.20;;;
79495;BMP180;68951;53.130;18.104;2023-04-25T00:25:26;99809.80;;;
79495;BMP180;68951;53.130;18.104;2023-04-25T00:27:53;99808.60;;;
79495;BMP180;68951;53.130;18.104;2023-04-25T00:30:20;99811.00;;;
79495;BMP180;68951;53.130;18.104;2023-04-25T00:32:46;99815.00;;;
79495;BMP180;68951;53.130;18.104;2023-04-25T00:35:13;99810.40;;;
79495;BMP180;68951;53.130;18.104;2023-04-25T00:37:40;99810.20;;;
79495;BMP180;68951;53.130;18.104;2023-04-25T00:40:07;99811.40;;;
79495;BMP180;68951;53.130;18.104;2023-04-25T00:42:35;99812.40;;;
79495;BMP180;68951;53.130;18.104;2023-04-25T00:45:06;99817.80;;;
79495;BMP180;68951;53.130;18.104;2023-04-25T00:47:35;99817.00;;;
79495;BMP180;68951;53.130;18.104;2023-04-25T00:50:02;99820.60;;;
79495;BMP180;68951;53.130;18.104;2023-04-25T00:52:29;99821.20;;;
79495;BMP180;68951;53.130;18.104;2023-04-25T00:54:56;99825.40;;;
79495;BMP180;68951;53.130;18.104;2023-04-25T00:57:23;99826.80;;;
79495;BMP180;68951;53.130;18.104;2023-04-25T00:59:51;99823.40;;;
79495;BMP180;68951;53.130;18.104;2023-04-25T01:02:20;99826.60;;;
79495;BMP180;68951;53.130;18.104;2023-04-25T01:04:48;99821.00;;;
79495;BMP180;68951;53.130;18.104;2023-04-25T01:07:15;99830.80;;;
79495;BMP180;68951;53.130;18.104;2023-04-25T01:09:42;99825.00;;;
79495;BMP180;68951;53.130;18.104;2023-04-25T01:12:09;99822.40;;;
79495;BMP180;68951;53.130;18.104;2023-04-25T01:14:36;99824.20;;;
79495;BMP180;68951;53.130;18.104;2023-04-25T01:17:04;99823.60;;;
79495;BMP180;68951;53.130;18.104;2023-04-25T01:19:31;99826.80;;;
79495;BMP180;68951;53.130;18.104;2023-04-25T01:21:58;99819.20;;;
79495;BMP180;68951;53.130;18.104;2023-04-25T01:24:25;99823.20;;;
79495;BMP180;68951;53.130;18.104;2023-04-25T01:26:54;99822.40;;;
79495;BMP180;68951;53.130;18.104;2023-04-25T01:29:23;99821.20;;;
79495;BMP180;68951;53.130;18.104;2023-04-25T01:31:52;99820.20;;;
79495;BMP180;68951;53.130;18.104;2023-04-25T01:34:19;99816.40;;;
79495;BMP180;68951;53.130;18.104;2023-04-25T01:36:49;99824.20;;;
79495;BMP180;68951;53.130;18.104;2023-04-25T01:39:18;99826.00;;;
79495;BMP180;68951;53.130;18.104;2023-04-25T01:41:48;99827.80;;;
79495;BMP180;68951;53.130;18.104;2023-04-25T01:44:15;99830.60;;;
79495;BMP180;68951;53.130;18.104;2023-04-25T01:46:43;99829.40;;;
79495;BMP180;68951;53.130;18.104;2023-04-25T01:49:10;99825.60;;;
79495;BMP180;68951;53.130;18.104;2023-04-25T01:51:37;99828.20;;;
79495;BMP180;68951;53.130;18.104;2023-04-25T01:54:04;99827.60;;;
79495;BMP180;68951;53.130;18.104;2023-04-25T01:56:32;99831.20;;;
79495;BMP180;68951;53.130;18.104;2023-04-25T01:58:59;99832.20;;;
79495;BMP180;68951;53.130;18.104;2023-04-25T02:01:26;99837.00;;;
79495;BMP180;68951;53.130;18.104;2023-04-25T02:03:53;99838.40;;;
79495;BMP180;68951;53.130;18.104;2023-04-25T02:06:20;99834.80;;;
79495;BMP180;68951;53.130;18.104;2023-04-25T02:08:47;99835.60;;;
79495;BMP180;68951;53.130;18.104;2023-04-25T02:11:13;99838.00;;;
79495;BMP180;68951;53.130;18.104;2023-04-25T02:13:40;99834.20;;;
79495;BMP180;68951;53.130;18.104;2023-04-25T02:16:07;99839.60;;;
79495;BMP180;68951;53.130;18.104;2023-04-25T02:18:34;99837.00;;;
79495;BMP180;68951;53.130;18.104;2023-04-25T02:21:03;99841.60;;;
79495;BMP180;68951;53.130;18.104;2023-04-25T02:23:30;99839.20;;;
79495;BMP180;68951;53.130;18.104;2023-04-25T02:25:57;99837.40;;;
79495;BMP180;68951;53.130;18.104;2023-04-25T02:28:24;99841.80;;;
79495;BMP180;68951;53.130;18.104;2023-04-25T02:30:52;99838.40;;;
79495;BMP180;68951;53.130;18.104;2023-04-25T02:33:20;99848.00;;;
79495;BMP180;68951;53.130;18.104;2023-04-25T02:35:47;99840.60;;;
79495;BMP180;68951;53.130;18.104;2023-04-25T02:38:14;99849.80;;;
79495;BMP180;68951;53.130;18.104;2023-04-25T02:40:41;99848.60;;;
79495;BMP180;68951;53.130;18.104;2023-04-25T02:43:08;99844.80;;;
79495;BMP180;68951;53.130;18.104;2023-04-25T02:45:35;99843.80;;;
79495;BMP180;68951;53.130;18.104;2023-04-25T02:48:03;99842.40;;;
79495;BMP180;68951;53.130;18.104;2023-04-25T02:50:29;99845.80;;;
79495;BMP180;68951;53.130;18.104;2023-04-25T02:52:56;99846.80;;;
79495;BMP180;68951;53.130;18.104;2023-04-25T02:55:23;99848.80;;;
79495;BMP180;68951;53.130;18.104;2023-04-25T02:57:50;99846.60;;;
79495;BMP180;68951;53.130;18.104;2023-04-25T03:00:17;99850.40;;;
79495;BMP180;68951;53.130;18.104;2023-04-25T03:02:43;99845.40;;;
79495;BMP180;68951;53.130;18.104;2023-04-25T03:05:10;99847.20;;;
79495;BMP180;68951;53.130;18.104;2023-04-25T03:07:37;99846.80;;;
79495;BMP180;68951;53.130;18.104;2023-04-25T03:10:07;99844.80;;;
79495;BMP180;68951;53.130;18.104;2023-04-25T03:12:34;99851.00;;;
79495;BMP180;68951;53.130;18.104;2023-04-25T03:15:01;99853.20;;;
79495;BMP180;68951;53.130;18.104;2023-04-25T03:17:27;99847.40;;;
79495;BMP180;68951;53.130;18.104;2023-04-25T03:19:55;99854.80;;;
79495;BMP180;68951;53.130;18.104;2023-04-25T03:22:22;99853.80;;;
79495;BMP180;68951;53.130;18.104;2023-04-25T03:24:49;99849.20;;;
79495;BMP180;68951;53.130;18.104;2023-04-25T03:27:17;99852.80;;;
79495;BMP180;68951;53.130;18.104;2023-04-25T03:29:44;99855.80;;;
79495;BMP180;68951;53.130;18.104;2023-04-25T03:32:10;99850.20;;;
79495;BMP180;68951;53.130;18.104;2023-04-25T03:34:37;99852.00;;;
79495;BMP180;68951;53.130;18.104;2023-04-25T03:37:04;99855.40;;;
79495;BMP180;68951;53.130;18.104;2023-04-25T03:39:31;99855.80;;;
79495;BMP180;68951;53.130;18.104;2023-04-25T03:41:58;99857.60;;;
79495;BMP180;68951;53.130;18.104;2023-04-25T03:44:25;99854.80;;;
79495;BMP180;68951;53.130;18.104;2023-04-25T03:46:51;99862.40;;;
79495;BMP180;68951;53.130;18.104;2023-04-25T03:49:18;99871.20;;;
79495;BMP180;68951;53.130;18.104;2023-04-25T03:51:45;99868.20;;;
79495;BMP180;68951;53.130;18.104;2023-04-25T03:54:12;99872.00;;;
79495;BMP180;68951;53.130;18.104;2023-04-25T03:56:38;99875.20;;;
79495;BMP180;68951;53.130;18.104;2023-04-25T03:59:05;99874.00;;;
79495;BMP180;68951;53.130;18.104;2023-04-25T04:01:32;99881.40;;;
79495;BMP180;68951;53.130;18.104;2023-04-25T04:03:59;99883.40;;;
79495;BMP180;68951;53.130;18.104;2023-04-25T04:06:25;99890.00;;;
79495;BMP180;68951;53.130;18.104;2023-04-25T04:08:53;99897.00;;;
79495;BMP180;68951;53.130;18.104;2023-04-25T04:11:19;99896.40;;;
79495;BMP180;68951;53.130;18.104;2023-04-25T04:13:47;99897.00;;;
79495;BMP180;68951;53.130;18.104;2023-04-25T04:16:13;99896.40;;;
79495;BMP180;68951;53.130;18.104;2023-04-25T04:18:40;99899.60;;;
79495;BMP180;68951;53.130;18.104;2023-04-25T04:21:07;99907.00;;;
79495;BMP180;68951;53.130;18.104;2023-04-25T04:23:34;99904.60;;;
79495;BMP180;68951;53.130;18.104;2023-04-25T04:26:01;99906.20;;;
79495;BMP180;68951;53.130;18.104;2023-04-25T04:28:28;99912.60;;;
79495;BMP180;68951;53.130;18.104;2023-04-25T04:30:55;99914.60;;;
79495;BMP180;68951;53.130;18.104;2023-04-25T04:33:22;99914.20;;;
79495;BMP180;68951;53.130;18.104;2023-04-25T04:35:51;99919.40;;;
79495;BMP180;68951;53.130;18.104;2023-04-25T04:38:18;99916.20;;;
79495;BMP180;68951;53.130;18.104;2023-04-25T04:40:46;99913.60;;;
79495;BMP180;68951;53.130;18.104;2023-04-25T04:43:14;99917.40;;;
79495;BMP180;68951;53.130;18.104;2023-04-25T04:45:43;99920.00;;;
79495;BMP180;68951;53.130;18.104;2023-04-25T04:48:11;99918.80;;;
79495;BMP180;68951;53.130;18.104;2023-04-25T04:50:40;99916.40;;;
79495;BMP180;68951;53.130;18.104;2023-04-25T04:53:09;99915.00;;;
79495;BMP180;68951;53.130;18.104;2023-04-25T04:55:35;99914.60;;;
79495;BMP180;68951;53.130;18.104;2023-04-25T04:58:02;99921.40;;;
79495;BMP180;68951;53.130;18.104;2023-04-25T05:00:29;99921.60;;;
79495;BMP180;68951;53.130;18.104;2023-04-25T05:02:56;99923.40;;;
79495;BMP180;68951;53.130;18.104;2023-04-25T05:05:23;99928.60;;;
79495;BMP180;68951;53.130;18.104;2023-04-25T05:07:51;99935.80;;;
79495;BMP180;68951;53.130;18.104;2023-04-25T05:10:19;99930.60;;;
79495;BMP180;68951;53.130;18.104;2023-04-25T05:12:46;99931.80;;;
79495;BMP180;68951;53.130;18.104;2023-04-25T05:15:13;99928.80;;;
79495;BMP180;68951;53.130;18.104;2023-04-25T05:17:40;99933.40;;;
79495;BMP180;68951;53.130;18.104;2023-04-25T05:20:08;99926.80;;;
79495;BMP180;68951;53.130;18.104;2023-04-25T05:22:37;99930.20;;;
79495;BMP180;68951;53.130;18.104;2023-04-25T05:25:05;99927.80;;;
79495;BMP180;68951;53.130;18.104;2023-04-25T05:27:32;99934.80;;;
79495;BMP180;68951;53.130;18.104;2023-04-25T05:29:59;99934.40;;;
79495;BMP180;68951;53.130;18.104;2023-04-25T05:32:26;99933.20;;;
79495;BMP180;68951;53.130;18.104;2023-04-25T05:34:53;99931.00;;;
79495;BMP180;68951;53.130;18.104;2023-04-25T05:37:20;99932.80;;;
79495;BMP180;68951;53.130;18.104;2023-04-25T05:39:47;99940.60;;;
79495;BMP180;68951;53.130;18.104;2023-04-25T05:42:14;99939.60;;;
79495;BMP180;68951;53.130;18.104;2023-04-25T05:44:41;99938.20;;;
79495;BMP180;68951;53.130;18.104;2023-04-25T05:47:08;99935.80;;;
79495;BMP180;68951;53.130;18.104;2023-04-25T05:49:34;99935.80;;;
79495;BMP180;68951;53.130;18.104;2023-04-25T05:52:02;99942.20;;;
79495;BMP180;68951;53.130;18.104;2023-04-25T05:54:28;99941.80;;;
79495;BMP180;68951;53.130;18.104;2023-04-25T06:10:21;99955.80;;;
79495;BMP180;68951;53.130;18.104;2023-04-25T06:12:49;99952.00;;;
79495;BMP180;68951;53.130;18.104;2023-04-25T06:15:16;99949.00;;;
79495;BMP180;68951;53.130;18.104;2023-04-25T06:17:43;99956.40;;;
79495;BMP180;68951;53.130;18.104;2023-04-25T06:20:10;99951.00;;;
79495;BMP180;68951;53.130;18.104;2023-04-25T06:22:37;99954.40;;;
79495;BMP180;68951;53.130;18.104;2023-04-25T06:25:05;99951.40;;;
79495;BMP180;68951;53.130;18.104;2023-04-25T06:27:34;99943.00;;;
79495;BMP180;68951;53.130;18.104;2023-04-25T06:30:01;99949.00;;;
79495;BMP180;68951;53.130;18.104;2023-04-25T06:32:27;99949.80;;;
79495;BMP180;68951;53.130;18.104;2023-04-25T06:34:56;99953.20;;;
79495;BMP180;68951;53.130;18.104;2023-04-25T06:37:23;99950.60;;;
79495;BMP180;68951;53.130;18.104;2023-04-25T06:39:50;99953.00;;;
79495;BMP180;68951;53.130;18.104;2023-04-25T06:42:17;99948.60;;;
79495;BMP180;68951;53.130;18.104;2023-04-25T06:44:44;99950.80;;;
79495;BMP180;68951;53.130;18.104;2023-04-25T06:47:10;99948.60;;;
79495;BMP180;68951;53.130;18.104;2023-04-25T06:49:37;99948.80;;;
79495;BMP180;68951;53.130;18.104;2023-04-25T06:52:04;99941.40;;;
79495;BMP180;68951;53.130;18.104;2023-04-25T06:54:31;99941.80;;;
79495;BMP180;68951;53.130;18.104;2023-04-25T06:56:58;99940.00;;;
79495;BMP180;68951;53.130;18.104;2023-04-25T06:59:25;99944.60;;;
79495;BMP180;68951;53.130;18.104;2023-04-25T07:01:51;99943.20;;;
79495;BMP180;68951;53.130;18.104;2023-04-25T07:04:18;99943.00;;;
79495;BMP180;68951;53.130;18.104;2023-04-25T07:06:45;99949.60;;;
79495;BMP180;68951;53.130;18.104;2023-04-25T07:09:14;99949.60;;;
79495;BMP180;68951;53.130;18.104;2023-04-25T07:11:41;99943.60;;;
79495;BMP180;68951;53.130;18.104;2023-04-25T07:14:07;99946.00;;;
79495;BMP180;68951;53.130;18.104;2023-04-25T07:16:34;99949.60;;;
79495;BMP180;68951;53.130;18.104;2023-04-25T07:19:01;99951.20;;;
79495;BMP180;68951;53.130;18.104;2023-04-25T07:21:28;99948.80;;;
79495;BMP180;68951;53.130;18.104;2023-04-25T07:23:55;99950.60;;;
79495;BMP180;68951;53.130;18.104;2023-04-25T07:26:22;99954.20;;;
79495;BMP180;68951;53.130;18.104;2023-04-25T07:28:49;99958.40;;;
79495;BMP180;68951;53.130;18.104;2023-04-25T07:31:17;99956.60;;;
79495;BMP180;68951;53.130;18.104;2023-04-25T07:33:45;99958.40;;;
79495;BMP180;68951;53.130;18.104;2023-04-25T07:36:12;99955.80;;;
79495;BMP180;68951;53.130;18.104;2023-04-25T07:38:39;99958.40;;;
79495;BMP180;68951;53.130;18.104;2023-04-25T07:41:06;99959.00;;;
79495;BMP180;68951;53.130;18.104;2023-04-25T07:43:33;99960.60;;;
79495;BMP180;68951;53.130;18.104;2023-04-25T07:46:00;99962.80;;;
79495;BMP180;68951;53.130;18.104;2023-04-25T07:48:27;99960.00;;;
79495;BMP180;68951;53.130;18.104;2023-04-25T07:50:54;99961.40;;;
79495;BMP180;68951;53.130;18.104;2023-04-25T07:53:19;99966.00;;;
79495;BMP180;68951;53.130;18.104;2023-04-25T07:55:46;99960.80;;;
79495;BMP180;68951;53.130;18.104;2023-04-25T07:58:13;99972.40;;;
79495;BMP180;68951;53.130;18.104;2023-04-25T08:00:41;99971.40;;;
79495;BMP180;68951;53.130;18.104;2023-04-25T08:03:09;99974.20;;;
79495;BMP180;68951;53.130;18.104;2023-04-25T08:05:36;99978.20;;;
79495;BMP180;68951;53.130;18.104;2023-04-25T08:08:03;99972.40;;;
79495;BMP180;68951;53.130;18.104;2023-04-25T08:10:31;99973.20;;;
79495;BMP180;68951;53.130;18.104;2023-04-25T08:15:43;99975.40;;;
79495;BMP180;68951;53.130;18.104;2023-04-25T08:18:10;99979.40;;;
79495;BMP180;68951;53.130;18.104;2023-04-25T08:20:37;99977.20;;;
79495;BMP180;68951;53.130;18.104;2023-04-25T08:23:04;99982.20;;;
79495;BMP180;68951;53.130;18.104;2023-04-25T08:25:31;99979.20;;;
79495;BMP180;68951;53.130;18.104;2023-04-25T08:27:57;99981.00;;;
79495;BMP180;68951;53.130;18.104;2023-04-25T08:30:26;99981.80;;;
79495;BMP180;68951;53.130;18.104;2023-04-25T08:32:53;99989.00;;;
79495;BMP180;68951;53.130;18.104;2023-04-25T08:35:20;99991.00;;;
79495;BMP180;68951;53.130;18.104;2023-04-25T08:37:47;99991.80;;;
79495;BMP180;68951;53.130;18.104;2023-04-25T08:40:15;99997.00;;;
79495;BMP180;68951;53.130;18.104;2023-04-25T08:42:42;99998.40;;;
79495;BMP180;68951;53.130;18.104;2023-04-25T08:45:10;99997.80;;;
79495;BMP180;68951;53.130;18.104;2023-04-25T08:47:38;99993.20;;;
79495;BMP180;68951;53.130;18.104;2023-04-25T08:50:06;99995.40;;;
79495;BMP180;68951;53.130;18.104;2023-04-25T08:52:44;100002.80;;;
79495;BMP180;68951;53.130;18.104;2023-04-25T08:55:13;100001.60;;;
79495;BMP180;68951;53.130;18.104;2023-04-25T08:57:42;99994.40;;;
79495;BMP180;68951;53.130;18.104;2023-04-25T09:00:13;99997.80;;;
79495;BMP180;68951;53.130;18.104;2023-04-25T09:02:42;100000.80;;;
79495;BMP180;68951;53.130;18.104;2023-04-25T09:05:13;99995.20;;;
79495;BMP180;68951;53.130;18.104;2023-04-25T09:07:40;99999.40;;;
79495;BMP180;68951;53.130;18.104;2023-04-25T09:10:08;100001.80;;;
79495;BMP180;68951;53.130;18.104;2023-04-25T09:12:36;100006.20;;;
79495;BMP180;68951;53.130;18.104;2023-04-25T09:15:09;100011.80;;;
79495;BMP180;68951;53.130;18.104;2023-04-25T09:17:36;100018.00;;;
79495;BMP180;68951;53.130;18.104;2023-04-25T09:20:12;100014.20;;;
79495;BMP180;68951;53.130;18.104;2023-04-25T09:22:40;100016.60;;;
79495;BMP180;68951;53.130;18.104;2023-04-25T09:25:12;100018.00;;;
79495;BMP180;68951;53.130;18.104;2023-04-25T09:27:53;100014.00;;;
79495;BMP180;68951;53.130;18.104;2023-04-25T09:30:30;100020.60;;;
79495;BMP180;68951;53.130;18.104;2023-04-25T09:33:08;100020.60;;;
79495;BMP180;68951;53.130;18.104;2023-04-25T09:35:42;100019.20;;;
79495;BMP180;68951;53.130;18.104;2023-04-25T09:38:14;100022.60;;;
79495;BMP180;68951;53.130;18.104;2023-04-25T09:40:46;100023.40;;;
79495;BMP180;68951;53.130;18.104;2023-04-25T09:43:21;100025.40;;;
79495;BMP180;68951;53.130;18.104;2023-04-25T09:45:50;100027.80;;;
79495;BMP180;68951;53.130;18.104;2023-04-25T09:48:22;100029.20;;;
79495;BMP180;68951;53.130;18.104;2023-04-25T09:51:15;100028.00;;;
79495;BMP180;68951;53.130;18.104;2023-04-25T09:53:46;100037.00;;;
79495;BMP180;68951;53.130;18.104;2023-04-25T09:56:19;100035.80;;;
79495;BMP180;68951;53.130;18.104;2023-04-25T09:58:47;100037.40;;;
79495;BMP180;68951;53.130;18.104;2023-04-25T10:01:16;100041.20;;;
79495;BMP180;68951;53.130;18.104;2023-04-25T10:03:48;100042.40;;;
79495;BMP180;68951;53.130;18.104;2023-04-25T10:06:22;100042.40;;;
79495;BMP180;68951;53.130;18.104;2023-04-25T10:08:51;100042.80;;;
79495;BMP180;68951;53.130;18.104;2023-04-25T10:11:25;100047.80;;;
79495;BMP180;68951;53.130;18.104;2023-04-25T10:13:52;100046.00;;;
79495;BMP180;68951;53.130;18.104;2023-04-25T10:16:20;100046.60;;;
79495;BMP180;68951;53.130;18.104;2023-04-25T10:18:48;100053.20;;;
79495;BMP180;68951;53.130;18.104;2023-04-25T10:21:16;100050.20;;;
79495;BMP180;68951;53.130;18.104;2023-04-25T10:23:43;100050.40;;;
79495;BMP180;68951;53.130;18.104;2023-04-25T10:26:12;100056.20;;;
79495;BMP180;68951;53.130;18.104;2023-04-25T10:29:01;100053.20;;;
79495;BMP180;68951;53.130;18.104;2023-04-25T10:31:31;100058.80;;;
79495;BMP180;68951;53.130;18.104;2023-04-25T10:34:00;100053.20;;;
79495;BMP180;68951;53.130;18.104;2023-04-25T10:36:31;100055.20;;;
79495;BMP180;68951;53.130;18.104;2023-04-25T10:39:04;100056.40;;;
79495;BMP180;68951;53.130;18.104;2023-04-25T10:41:56;100062.20;;;
79495;BMP180;68951;53.130;18.104;2023-04-25T10:44:28;100060.20;;;
79495;BMP180;68951;53.130;18.104;2023-04-25T10:46:58;100055.00;;;
79495;BMP180;68951;53.130;18.104;2023-04-25T10:49:38;100055.80;;;
79495;BMP180;68951;53.130;18.104;2023-04-25T10:54:46;100062.60;;;
79495;BMP180;68951;53.130;18.104;2023-04-25T10:57:40;100058.20;;;
79495;BMP180;68951;53.130;18.104;2023-04-25T11:00:10;100057.40;;;
79495;BMP180;68951;53.130;18.104;2023-04-25T11:05:09;100061.40;;;
79495;BMP180;68951;53.130;18.104;2023-04-25T11:07:54;100058.00;;;
79495;BMP180;68951;53.130;18.104;2023-04-25T11:10:29;100060.20;;;
79495;BMP180;68951;53.130;18.104;2023-04-25T11:12:57;100055.20;;;
79495;BMP180;68951;53.130;18.104;2023-04-25T11:15:25;100057.40;;;
79495;BMP180;68951;53.130;18.104;2023-04-25T11:23:56;100069.40;;;
79495;BMP180;68951;53.130;18.104;2023-04-25T11:26:24;100065.80;;;
79495;BMP180;68951;53.130;18.104;2023-04-25T11:28:57;100066.80;;;
79495;BMP180;68951;53.130;18.104;2023-04-25T11:31:25;100067.00;;;
79495;BMP180;68951;53.130;18.104;2023-04-25T11:33:54;100071.00;;;
79495;BMP180;68951;53.130;18.104;2023-04-25T11:36:24;100072.00;;;
79495;BMP180;68951;53.130;18.104;2023-04-25T11:38:53;100067.80;;;
79495;BMP180;68951;53.130;18.104;2023-04-25T11:41:20;100065.80;;;
79495;BMP180;68951;53.130;18.104;2023-04-25T11:43:49;100070.00;;;
79495;BMP180;68951;53.130;18.104;2023-04-25T11:46:18;100068.40;;;
79495;BMP180;68951;53.130;18.104;2023-04-25T11:48:46;100069.40;;;
79495;BMP180;68951;53.130;18.104;2023-04-25T11:51:14;100076.60;;;
79495;BMP180;68951;53.130;18.104;2023-04-25T11:53:43;100077.00;;;
79495;BMP180;68951;53.130;18.104;2023-04-25T11:56:11;100079.00;;;
79495;BMP180;68951;53.130;18.104;2023-04-25T11:59:03;100079.80;;;
79495;BMP180;68951;53.130;18.104;2023-04-25T12:01:36;100081.40;;;
79495;BMP180;68951;53.130;18.104;2023-04-25T12:04:24;100085.40;;;
79495;BMP180;68951;53.130;18.104;2023-04-25T12:06:54;100079.20;;;
79495;BMP180;68951;53.130;18.104;2023-04-25T12:09:29;100079.60;;;
79495;BMP180;68951;53.130;18.104;2023-04-25T12:11:59;100076.60;;;
79495;BMP180;68951;53.130;18.104;2023-04-25T12:14:34;100082.20;;;
79495;BMP180;68951;53.130;18.104;2023-04-25T12:17:03;100083.20;;;
79495;BMP180;68951;53.130;18.104;2023-04-25T12:19:37;100081.80;;;
79495;BMP180;68951;53.130;18.104;2023-04-25T12:22:24;100086.20;;;
79495;BMP180;68951;53.130;18.104;2023-04-25T12:24:51;100085.40;;;
79495;BMP180;68951;53.130;18.104;2023-04-25T12:27:20;100084.60;;;
79495;BMP180;68951;53.130;18.104;2023-04-25T12:29:55;100089.40;;;
79495;BMP180;68951;53.130;18.104;2023-04-25T12:32:23;100088.00;;;
79495;BMP180;68951;53.130;18.104;2023-04-25T12:34:50;100083.60;;;
79495;BMP180;68951;53.130;18.104;2023-04-25T12:37:18;100084.60;;;
79495;BMP180;68951;53.130;18.104;2023-04-25T12:39:44;100083.60;;;
79495;BMP180;68951;53.130;18.104;2023-04-25T12:42:11;100087.80;;;
79495;BMP180;68951;53.130;18.104;2023-04-25T12:44:38;100084.60;;;
79495;BMP180;68951;53.130;18.104;2023-04-25T12:47:05;100084.20;;;
79495;BMP180;68951;53.130;18.104;2023-04-25T12:49:32;100077.40;;;
79495;BMP180;68951;53.130;18.104;2023-04-25T12:51:59;100088.20;;;
79495;BMP180;68951;53.130;18.104;2023-04-25T12:54:26;100082.00;;;
79495;BMP180;68951;53.130;18.104;2023-04-25T12:56:53;100086.00;;;
79495;BMP180;68951;53.130;18.104;2023-04-25T12:59:20;100087.80;;;
79495;BMP180;68951;53.130;18.104;2023-04-25T13:01:47;100079.20;;;
79495;BMP180;68951;53.130;18.104;2023-04-25T13:04:14;100082.00;;;
79495;BMP180;68951;53.130;18.104;2023-04-25T13:06:42;100074.80;;;
79495;BMP180;68951;53.130;18.104;2023-04-25T13:09:09;100070.80;;;
79495;BMP180;68951;53.130;18.104;2023-04-25T13:11:36;100065.80;;;
79495;BMP180;68951;53.130;18.104;2023-04-25T13:14:03;100074.60;;;
79495;BMP180;68951;53.130;18.104;2023-04-25T13:16:30;100074.40;;;
79495;BMP180;68951;53.130;18.104;2023-04-25T13:18:58;100071.20;;;
79495;BMP180;68951;53.130;18.104;2023-04-25T13:21:24;100076.20;;;
79495;BMP180;68951;53.130;18.104;2023-04-25T13:23:52;100075.80;;;
79495;BMP180;68951;53.130;18.104;2023-04-25T13:26:18;100086.20;;;
79495;BMP180;68951;53.130;18.104;2023-04-25T13:28:46;100090.60;;;
79495;BMP180;68951;53.130;18.104;2023-04-25T13:31:13;100091.00;;;
79495;BMP180;68951;53.130;18.104;2023-04-25T13:33:39;100087.60;;;
79495;BMP180;68951;53.130;18.104;2023-04-25T13:36:06;100089.60;;;
79495;BMP180;68951;53.130;18.104;2023-04-25T13:38:33;100092.20;;;
79495;BMP180;68951;53.130;18.104;2023-04-25T13:41:00;100093.40;;;
79495;BMP180;68951;53.130;18.104;2023-04-25T13:43:27;100088.20;;;
79495;BMP180;68951;53.130;18.104;2023-04-25T13:45:54;100093.00;;;
79495;BMP180;68951;53.130;18.104;2023-04-25T13:48:21;100095.80;;;
79495;BMP180;68951;53.130;18.104;2023-04-25T13:50:49;100092.40;;;
79495;BMP180;68951;53.130;18.104;2023-04-25T13:53:16;100093.40;;;
79495;BMP180;68951;53.130;18.104;2023-04-25T13:55:43;100091.60;;;
79495;BMP180;68951;53.130;18.104;2023-04-25T13:58:09;100094.80;;;
79495;BMP180;68951;53.130;18.104;2023-04-25T14:00:38;100097.20;;;
79495;BMP180;68951;53.130;18.104;2023-04-25T14:03:06;100096.40;;;
79495;BMP180;68951;53.130;18.104;2023-04-25T14:05:35;100100.20;;;
79495;BMP180;68951;53.130;18.104;2023-04-25T14:08:09;100097.00;;;
79495;BMP180;68951;53.130;18.104;2023-04-25T14:10:36;100096.20;;;
79495;BMP180;68951;53.130;18.104;2023-04-25T14:13:04;100098.20;;;
79495;BMP180;68951;53.130;18.104;2023-04-25T14:15:32;100098.00;;;
79495;BMP180;68951;53.130;18.104;2023-04-25T14:18:00;100095.40;;;
79495;BMP180;68951;53.130;18.104;2023-04-25T14:20:27;100098.60;;;
79495;BMP180;68951;53.130;18.104;2023-04-25T14:22:54;100100.60;;;
79495;BMP180;68951;53.130;18.104;2023-04-25T14:25:23;100100.60;;;
79495;BMP180;68951;53.130;18.104;2023-04-25T14:27:51;100107.60;;;
79495;BMP180;68951;53.130;18.104;2023-04-25T14:30:19;100107.00;;;
79495;BMP180;68951;53.130;18.104;2023-04-25T14:32:47;100121.60;;;
79495;BMP180;68951;53.130;18.104;2023-04-25T14:35:14;100131.00;;;
79495;BMP180;68951;53.130;18.104;2023-04-25T14:37:41;100133.60;;;
79495;BMP180;68951;53.130;18.104;2023-04-25T14:40:08;100138.00;;;
79495;BMP180;68951;53.130;18.104;2023-04-25T14:42:37;100131.40;;;
79495;BMP180;68951;53.130;18.104;2023-04-25T14:45:07;100142.20;;;
79495;BMP180;68951;53.130;18.104;2023-04-25T14:47:36;100144.40;;;
79495;BMP180;68951;53.130;18.104;2023-04-25T14:50:04;100148.80;;;
79495;BMP180;68951;53.130;18.104;2023-04-25T14:52:31;100146.40;;;
79495;BMP180;68951;53.130;18.104;2023-04-25T14:54:58;100147.80;;;
79495;BMP180;68951;53.130;18.104;2023-04-25T14:57:26;100150.20;;;
79495;BMP180;68951;53.130;18.104;2023-04-25T14:59:53;100156.60;;;
79495;BMP180;68951;53.130;18.104;2023-04-25T15:02:20;100158.60;;;
79495;BMP180;68951;53.130;18.104;2023-04-25T15:04:47;100156.60;;;
79495;BMP180;68951;53.130;18.104;2023-04-25T15:07:14;100160.40;;;
79495;BMP180;68951;53.130;18.104;2023-04-25T15:09:41;100160.20;;;
79495;BMP180;68951;53.130;18.104;2023-04-25T15:12:08;100162.80;;;
79495;BMP180;68951;53.130;18.104;2023-04-25T15:14:35;100161.60;;;
79495;BMP180;68951;53.130;18.104;2023-04-25T15:17:02;100164.20;;;
79495;BMP180;68951;53.130;18.104;2023-04-25T15:19:29;100162.80;;;
79495;BMP180;68951;53.130;18.104;2023-04-25T15:21:56;100165.40;;;
79495;BMP180;68951;53.130;18.104;2023-04-25T15:24:23;100163.20;;;
79495;BMP180;68951;53.130;18.104;2023-04-25T15:26:49;100167.40;;;
79495;BMP180;68951;53.130;18.104;2023-04-25T15:29:17;100167.60;;;